createdAt,value
2019-03-30T00:00:31.196Z,88.94
2019-03-30T00:03:05.645Z,89.41
2019-03-30T00:05:40.095Z,89.62
2019-03-30T00:08:14.575Z,89.77
2019-03-30T00:10:48.962Z,89.98
2019-03-30T00:13:23.669Z,90.33
2019-03-30T00:15:58.252Z,90.51
2019-03-30T00:18:33.070Z,90.87
2019-03-30T00:21:07.495Z,91.14
2019-03-30T00:23:41.973Z,91.35
2019-03-30T00:26:16.433Z,91.63
2019-03-30T00:28:50.842Z,91.56
2019-03-30T00:31:25.268Z,91.70
2019-03-30T00:33:59.671Z,91.89
2019-03-30T00:36:35.320Z,91.30
2019-03-30T00:39:10.545Z,91.19
2019-03-30T00:41:44.883Z,91.15
2019-03-30T00:44:19.363Z,91.07
2019-03-30T00:46:53.735Z,91.17
2019-03-30T00:49:28.156Z,91.42
2019-03-30T00:52:02.530Z,91.34
2019-03-30T00:54:36.921Z,91.56
2019-03-30T00:57:11.294Z,91.73
2019-03-30T00:59:45.687Z,92.09
2019-03-30T01:02:22.636Z,92.30
2019-03-30T01:04:57.818Z,92.17
2019-03-30T01:07:32.254Z,92.23
2019-03-30T01:10:07.188Z,91.83
2019-03-30T01:12:41.690Z,92.52
2019-03-30T01:15:16.848Z,92.87
2019-03-30T01:17:51.254Z,93.05
2019-03-30T01:20:25.711Z,93.24
2019-03-30T01:23:00.101Z,93.20
2019-03-30T01:25:34.916Z,93.33
2019-03-30T01:28:09.327Z,92.88
2019-03-30T01:30:44.041Z,93.26
2019-03-30T01:33:18.446Z,93.03
2019-03-30T01:35:52.789Z,93.01
2019-03-30T01:38:27.475Z,93.14
2019-03-30T01:41:01.825Z,93.20
2019-03-30T01:43:36.242Z,93.52
2019-03-30T01:46:10.651Z,93.79
2019-03-30T01:48:45.084Z,94.11
2019-03-30T01:51:19.509Z,94.36
2019-03-30T01:53:53.907Z,94.86
2019-03-30T01:56:30.257Z,95.11
2019-03-30T01:59:04.741Z,95.50
2019-03-30T02:01:39.387Z,95.77
2019-03-30T02:04:13.778Z,95.95
2019-03-30T02:06:48.113Z,96.12
2019-03-30T02:09:25.649Z,96.28
2019-03-30T02:12:00.605Z,96.33
2019-03-30T02:14:37.299Z,96.31
2019-03-30T02:17:11.664Z,96.49
2019-03-30T02:19:46.213Z,96.71
2019-03-30T02:22:20.729Z,96.35
2019-03-30T02:24:57.300Z,96.08
2019-03-30T02:27:31.660Z,95.91
2019-03-30T02:30:07.627Z,95.79
2019-03-30T02:32:43.556Z,95.55
2019-03-30T02:35:18.160Z,95.88
2019-03-30T02:37:52.589Z,96.13
2019-03-30T02:40:27.108Z,96.07
2019-03-30T02:43:02.184Z,96.38
2019-03-30T02:45:36.796Z,96.90
2019-03-30T02:48:11.169Z,97.10
2019-03-30T02:50:49.778Z,97.23
2019-03-30T02:53:21.821Z,97.37
2019-03-30T02:55:56.605Z,97.44
2019-03-30T02:58:31.029Z,97.58
2019-03-30T03:01:05.539Z,97.69
2019-03-30T03:03:42.022Z,97.84
2019-03-30T03:06:16.423Z,97.84
2019-03-30T03:08:50.953Z,97.90
2019-03-30T03:11:25.536Z,97.87
2019-03-30T03:13:59.953Z,97.80
2019-03-30T03:16:34.646Z,97.53
2019-03-30T03:19:09.072Z,97.16
2019-03-30T03:21:43.528Z,96.90
2019-03-30T03:24:17.972Z,96.71
2019-03-30T03:26:52.332Z,96.79
2019-03-30T03:29:26.731Z,96.96
2019-03-30T03:32:01.205Z,97.25
2019-03-30T03:34:35.634Z,97.48
2019-03-30T03:37:10.064Z,97.63
2019-03-30T03:39:44.490Z,97.67
2019-03-30T03:42:19.444Z,97.66
2019-03-30T03:44:53.875Z,97.59
2019-03-30T03:47:28.388Z,97.72
2019-03-30T03:50:02.778Z,97.77
2019-03-30T03:52:37.937Z,98.09
2019-03-30T03:55:12.403Z,98.18
2019-03-30T03:57:47.404Z,98.21
2019-03-30T04:00:21.849Z,98.46
2019-03-30T04:02:59.639Z,98.44
2019-03-30T04:05:37.402Z,98.52
2019-03-30T04:08:14.438Z,98.64
2019-03-30T04:10:51.863Z,98.64
2019-03-30T04:13:30.836Z,98.67
2019-03-30T04:16:05.839Z,98.54
2019-03-30T04:18:40.239Z,98.50
2019-03-30T04:21:14.693Z,98.41
2019-03-30T04:23:49.175Z,98.39
2019-03-30T04:26:23.543Z,98.52
2019-03-30T04:28:58.094Z,98.59
2019-03-30T04:31:32.531Z,98.63
2019-03-30T04:34:07.140Z,98.77
2019-03-30T04:36:41.608Z,98.85
2019-03-30T04:39:16.002Z,98.89
2019-03-30T04:41:50.745Z,98.89
2019-03-30T04:44:25.102Z,98.90
2019-03-30T04:46:59.549Z,98.91
2019-03-30T04:49:33.997Z,99.00
2019-03-30T04:52:08.373Z,99.16
2019-03-30T04:54:42.756Z,99.03
2019-03-30T04:57:17.092Z,98.92
2019-03-30T04:59:51.521Z,99.00
2019-03-30T05:02:25.880Z,99.04
2019-03-30T05:05:00.499Z,98.94
2019-03-30T05:07:34.886Z,99.00
2019-03-30T05:10:10.250Z,98.41
2019-03-30T05:12:44.614Z,98.11
2019-03-30T05:15:19.164Z,97.74
2019-03-30T05:17:53.878Z,97.63
2019-03-30T05:20:28.234Z,97.31
2019-03-30T05:23:02.706Z,97.02
2019-03-30T05:25:37.132Z,96.55
2019-03-30T05:28:11.896Z,96.32
2019-03-30T05:30:46.279Z,95.80
2019-03-30T05:33:20.691Z,94.78
2019-03-30T05:35:55.355Z,93.02
2019-03-30T05:38:29.769Z,90.24
2019-03-30T05:41:04.525Z,85.71
2019-03-30T05:43:38.906Z,81.68
2019-03-30T05:46:13.402Z,79.78
2019-03-30T05:48:47.751Z,80.25
2019-03-30T05:51:22.179Z,80.78
2019-03-30T05:53:56.587Z,79.01
2019-03-30T05:56:31.035Z,77.73
2019-03-30T05:59:05.460Z,75.55
2019-03-30T06:01:39.831Z,72.33
2019-03-30T06:04:14.245Z,71.98
2019-03-30T06:06:48.588Z,69.11
2019-03-30T06:09:23.010Z,68.09
2019-03-30T06:11:57.384Z,66.67
2019-03-30T06:14:31.851Z,65.24
2019-03-30T06:17:06.323Z,64.54
2019-03-30T06:19:40.711Z,62.17
2019-03-30T06:22:15.102Z,62.91
2019-03-30T06:24:49.692Z,61.19
2019-03-30T06:27:24.672Z,59.69
2019-03-30T06:30:23.428Z,58.92
2019-03-30T06:33:00.029Z,58.03
2019-03-30T06:35:36.034Z,58.06
2019-03-30T06:38:10.403Z,57.81
2019-03-30T06:40:44.906Z,56.58
2019-03-30T06:43:19.283Z,54.18
2019-03-30T06:45:53.697Z,54.52
2019-03-30T06:48:28.082Z,55.22
2019-03-30T06:51:03.021Z,54.40
2019-03-30T06:53:37.702Z,53.50
2019-03-30T06:56:13.969Z,51.96
2019-03-30T06:58:50.078Z,52.48
2019-03-30T07:01:24.761Z,51.49
2019-03-30T07:04:00.710Z,50.60
2019-03-30T07:06:36.074Z,49.08
2019-03-30T07:09:10.788Z,48.14
2019-03-30T07:11:48.889Z,47.41
2019-03-30T07:14:27.789Z,47.23
2019-03-30T07:17:05.798Z,46.19
2019-03-30T07:19:45.345Z,46.51
2019-03-30T07:22:21.394Z,45.60
2019-03-30T07:24:55.933Z,44.56
2019-03-30T07:27:31.040Z,43.74
2019-03-30T07:30:05.890Z,42.36
2019-03-30T07:32:43.298Z,41.88
2019-03-30T07:35:20.093Z,39.17
2019-03-30T07:37:54.987Z,39.75
2019-03-30T07:40:33.837Z,40.24
2019-03-30T07:43:07.835Z,39.36
2019-03-30T07:45:42.500Z,39.64
2019-03-30T07:48:19.843Z,40.69
2019-03-30T07:50:54.485Z,39.51
2019-03-30T07:53:28.925Z,40.75
2019-03-30T07:56:08.562Z,39.55
2019-03-30T07:58:41.029Z,38.90
2019-03-30T08:01:18.373Z,38.03
2019-03-30T08:03:55.717Z,38.81
2019-03-30T08:06:30.331Z,38.51
2019-03-30T08:09:06.226Z,38.04
2019-03-30T08:11:41.149Z,39.67
2019-03-30T08:14:15.746Z,37.67
2019-03-30T08:16:50.507Z,37.43
2019-03-30T08:19:25.102Z,37.52
2019-03-30T08:22:00.349Z,37.74
2019-03-30T08:24:36.755Z,37.30
2019-03-30T08:27:13.922Z,37.86
2019-03-30T08:29:49.827Z,38.08
2019-03-30T08:32:24.671Z,37.44
2019-03-30T08:34:59.224Z,38.69
2019-03-30T08:40:07.438Z,39.11
2019-03-30T08:42:41.943Z,38.87
2019-03-30T08:45:16.454Z,38.13
2019-03-30T08:47:52.244Z,37.77
2019-03-30T08:50:26.695Z,39.22
2019-03-30T08:53:01.447Z,38.69
2019-03-30T08:55:36.230Z,38.78
2019-03-30T08:58:15.663Z,40.41
2019-03-30T09:00:50.222Z,39.80
2019-03-30T09:03:26.196Z,40.58
2019-03-30T09:06:00.664Z,39.91
2019-03-30T09:08:35.217Z,40.32
2019-03-30T09:11:12.779Z,40.37
2019-03-30T09:13:48.883Z,40.37
2019-03-30T09:16:23.504Z,40.51
2019-03-30T09:18:59.937Z,40.74
2019-03-30T09:21:35.895Z,40.64
2019-03-30T09:24:10.614Z,41.86
2019-03-30T09:26:45.145Z,41.72
2019-03-30T09:29:21.489Z,42.03
2019-03-30T09:31:56.462Z,41.20
2019-03-30T09:34:32.859Z,41.88
2019-03-30T09:37:09.179Z,41.80
2019-03-30T09:39:45.392Z,42.74
2019-03-30T09:42:20.120Z,41.99
2019-03-30T09:44:54.945Z,41.36
2019-03-30T09:47:29.463Z,41.95
2019-03-30T09:50:04.052Z,42.12
2019-03-30T09:52:39.184Z,41.73
2019-03-30T09:55:15.868Z,41.38
2019-03-30T09:57:51.461Z,42.11
2019-03-30T10:00:26.405Z,41.46
2019-03-30T10:03:01.210Z,40.01
2019-03-30T10:05:36.415Z,40.55
2019-03-30T10:08:11.252Z,40.98
2019-03-30T10:10:45.730Z,40.70
2019-03-30T10:13:22.036Z,40.38
2019-03-30T10:15:57.004Z,40.85
2019-03-30T10:18:32.105Z,40.29
2019-03-30T10:21:08.603Z,40.67
2019-03-30T10:23:43.203Z,40.25
2019-03-30T10:26:19.572Z,39.32
2019-03-30T10:28:55.022Z,40.19
2019-03-30T10:31:32.072Z,40.77
2019-03-30T10:34:08.468Z,40.78
2019-03-30T10:36:42.974Z,41.16
2019-03-30T10:39:18.517Z,40.16
2019-03-30T10:41:53.162Z,39.69
2019-03-30T10:44:27.693Z,39.80
2019-03-30T10:47:03.959Z,38.96
2019-03-30T10:49:38.575Z,39.61
2019-03-30T10:52:13.149Z,38.22
2019-03-30T10:54:53.015Z,38.96
2019-03-30T10:57:25.953Z,39.09
2019-03-30T11:00:00.410Z,39.29
2019-03-30T11:02:37.067Z,38.19
2019-03-30T11:05:11.652Z,37.37
2019-03-30T11:07:47.723Z,37.81
2019-03-30T11:10:22.128Z,37.96
2019-03-30T11:12:57.018Z,38.40
2019-03-30T11:15:34.172Z,38.19
2019-03-30T11:18:07.655Z,35.62
2019-03-30T11:20:42.547Z,36.46
2019-03-30T11:23:17.242Z,35.25
2019-03-30T11:25:53.178Z,35.37
2019-03-30T11:28:27.635Z,36.32
2019-03-30T11:31:05.492Z,34.53
2019-03-30T11:33:42.589Z,34.64
2019-03-30T11:36:18.780Z,34.89
2019-03-30T11:38:53.412Z,35.25
2019-03-30T11:41:28.199Z,35.06
2019-03-30T11:44:02.961Z,35.79
2019-03-30T11:46:37.643Z,35.56
2019-03-30T11:49:12.207Z,35.72
2019-03-30T11:51:46.812Z,35.32
2019-03-30T11:54:21.689Z,35.97
2019-03-30T11:56:58.280Z,36.11
2019-03-30T11:59:33.356Z,37.35
2019-03-30T12:02:07.760Z,36.35
2019-03-30T12:04:42.388Z,36.00
2019-03-30T12:07:17.336Z,36.06
2019-03-30T12:09:52.163Z,35.82
2019-03-30T12:12:27.308Z,35.36
2019-03-30T12:15:01.867Z,35.92
2019-03-30T12:17:36.518Z,36.27
2019-03-30T12:20:11.653Z,36.40
2019-03-30T12:22:46.958Z,35.41
2019-03-30T12:25:34.875Z,35.48
2019-03-30T12:27:58.589Z,35.97
2019-03-30T12:30:34.858Z,35.55
2019-03-30T12:33:11.396Z,35.64
2019-03-30T12:35:46.320Z,36.31
2019-03-30T12:38:20.880Z,35.93
2019-03-30T12:40:55.669Z,35.86
2019-03-30T12:43:30.401Z,36.80
2019-03-30T12:46:06.458Z,36.03
2019-03-30T12:48:42.923Z,35.99
2019-03-30T12:51:17.475Z,35.05
2019-03-30T12:53:52.019Z,36.63
2019-03-30T12:56:26.598Z,36.94
2019-03-30T12:59:01.172Z,37.55
2019-03-30T13:01:37.171Z,37.27
2019-03-30T13:04:11.705Z,36.67
2019-03-30T13:06:46.343Z,36.38
2019-03-30T13:09:20.925Z,36.41
2019-03-30T13:11:57.224Z,36.60
2019-03-30T13:14:31.810Z,34.91
2019-03-30T13:17:06.782Z,35.49
2019-03-30T13:19:41.394Z,35.65
2019-03-30T13:22:15.776Z,34.74
2019-03-30T13:24:52.652Z,35.00
2019-03-30T13:27:27.080Z,33.98
2019-03-30T13:30:01.653Z,34.55
2019-03-30T13:32:36.079Z,35.20
2019-03-30T13:35:10.590Z,35.82
2019-03-30T13:37:45.025Z,35.57
2019-03-30T13:40:19.523Z,35.29
2019-03-30T13:42:53.878Z,34.75
2019-03-30T13:45:28.300Z,35.04
2019-03-30T13:48:03.110Z,35.55
2019-03-30T13:50:38.056Z,36.28
2019-03-30T13:53:12.514Z,36.58
2019-03-30T13:55:48.806Z,36.44
2019-03-30T13:59:01.172Z,36.36
2019-03-30T14:01:37.181Z,36.37
2019-03-30T14:04:11.604Z,35.59
2019-03-30T14:06:46.246Z,35.94
2019-03-30T14:09:22.138Z,36.04
2019-03-30T14:11:56.665Z,36.59
2019-03-30T14:14:31.111Z,37.08
2019-03-30T14:17:05.906Z,37.12
2019-03-30T14:19:42.193Z,37.42
2019-03-30T14:22:18.189Z,37.94
2019-03-30T14:24:52.742Z,36.76
2019-03-30T14:27:27.249Z,36.36
2019-03-30T14:30:01.970Z,37.23
2019-03-30T14:32:36.609Z,37.17
2019-03-30T14:35:12.724Z,36.93
2019-03-30T14:37:47.369Z,37.04
2019-03-30T14:40:21.979Z,37.18
2019-03-30T14:42:57.084Z,36.22
2019-03-30T14:45:31.620Z,36.84
2019-03-30T14:48:07.735Z,37.44
2019-03-30T14:50:42.170Z,38.16
2019-03-30T14:53:16.986Z,38.21
2019-03-30T14:55:51.614Z,37.44
2019-03-30T14:58:26.056Z,37.91
2019-03-30T15:01:03.210Z,37.98
2019-03-30T15:03:37.453Z,37.93
2019-03-30T15:06:11.981Z,37.92
2019-03-30T15:08:46.636Z,38.53
2019-03-30T15:11:22.219Z,38.71
2019-03-30T15:13:56.719Z,38.13
2019-03-30T15:16:31.313Z,37.92
2019-03-30T15:19:06.399Z,38.65
2019-03-30T15:21:42.675Z,39.06
2019-03-30T15:24:17.425Z,38.77
2019-03-30T15:26:59.759Z,38.69
2019-03-30T15:29:28.468Z,39.17
2019-03-30T15:32:03.376Z,38.69
2019-03-30T15:34:41.372Z,38.84
2019-03-30T15:37:16.076Z,39.20
2019-03-30T15:39:50.653Z,39.86
2019-03-30T15:42:27.071Z,40.49
2019-03-30T15:45:01.748Z,40.69
2019-03-30T15:47:36.965Z,40.73
2019-03-30T15:50:12.959Z,40.67
2019-03-30T15:52:49.664Z,40.83
2019-03-30T15:55:25.541Z,41.07
2019-03-30T15:58:00.257Z,41.41
2019-03-30T16:00:35.099Z,40.99
2019-03-30T16:03:09.750Z,41.73
2019-03-30T16:05:45.807Z,41.12
2019-03-30T16:08:20.277Z,41.57
2019-03-30T16:10:55.334Z,41.52
2019-03-30T16:13:31.605Z,41.10
2019-03-30T16:16:06.734Z,41.49
2019-03-30T16:18:43.038Z,41.09
2019-03-30T16:21:20.080Z,41.26
2019-03-30T16:23:55.124Z,41.51
2019-03-30T16:26:41.406Z,41.57
2019-03-30T16:29:08.463Z,42.00
2019-03-30T16:31:43.026Z,42.22
2019-03-30T16:34:19.478Z,42.00
2019-03-30T16:36:56.132Z,42.68
2019-03-30T16:39:34.819Z,42.95
2019-03-30T16:42:09.684Z,42.74
2019-03-30T16:44:44.255Z,42.31
2019-03-30T16:47:19.042Z,42.84
2019-03-30T16:49:55.435Z,43.03
2019-03-30T16:52:31.668Z,43.07
2019-03-30T16:55:08.041Z,43.34
2019-03-30T16:57:44.092Z,43.53
2019-03-30T17:00:21.015Z,44.08
2019-03-30T17:02:57.396Z,44.59
2019-03-30T17:05:31.963Z,44.92
2019-03-30T17:08:08.124Z,45.19
2019-03-30T17:10:42.659Z,45.94
2019-03-30T17:13:17.317Z,45.69
2019-03-30T17:15:51.970Z,46.32
2019-03-30T17:18:26.481Z,46.51
2019-03-30T17:21:01.162Z,47.11
2019-03-30T17:23:37.484Z,47.16
2019-03-30T17:26:12.337Z,47.47
2019-03-30T17:28:47.064Z,47.31
2019-03-30T17:31:21.687Z,47.18
2019-03-30T17:33:56.058Z,47.84
2019-03-30T17:36:30.647Z,47.89
2019-03-30T17:39:09.178Z,47.74
2019-03-30T17:41:45.120Z,47.27
2019-03-30T17:44:19.582Z,47.76
2019-03-30T17:46:54.539Z,47.76
2019-03-30T17:49:29.233Z,47.78
2019-03-30T17:52:03.899Z,47.95
2019-03-30T17:54:40.014Z,47.81
2019-03-30T17:57:17.449Z,48.09
2019-03-30T17:59:53.257Z,48.18
2019-03-30T18:02:28.056Z,48.64
2019-03-30T18:05:02.597Z,48.87
2019-03-30T18:07:37.231Z,49.19
2019-03-30T18:10:13.630Z,49.18
2019-03-30T18:12:49.939Z,49.34
2019-03-30T18:15:24.542Z,49.25
2019-03-30T18:18:00.656Z,49.27
2019-03-30T18:20:35.381Z,49.23
2019-03-30T18:23:10.032Z,49.37
2019-03-30T18:25:46.290Z,49.52
2019-03-30T18:28:26.940Z,50.04
2019-03-30T18:30:59.199Z,49.83
2019-03-30T18:33:34.348Z,50.00
2019-03-30T18:36:10.401Z,50.70
2019-03-30T18:38:49.385Z,51.37
2019-03-30T18:41:23.991Z,51.68
2019-03-30T18:44:02.232Z,51.52
2019-03-30T18:46:39.561Z,51.53
2019-03-30T18:49:14.070Z,51.82
2019-03-30T18:51:50.422Z,52.34
2019-03-30T18:54:27.510Z,52.59
2019-03-30T18:57:02.713Z,52.84
2019-03-30T18:59:37.294Z,52.36
2019-03-30T19:02:12.080Z,52.51
2019-03-30T19:04:48.651Z,52.15
2019-03-30T19:07:23.248Z,51.50
2019-03-30T19:09:59.108Z,50.71
2019-03-30T19:12:34.932Z,50.78
2019-03-30T19:15:10.877Z,50.89
2019-03-30T19:17:46.192Z,51.38
2019-03-30T19:20:22.531Z,51.76
2019-03-30T19:22:57.941Z,51.75
2019-03-30T19:25:32.571Z,52.23
2019-03-30T19:28:09.134Z,52.48
2019-03-30T19:30:44.887Z,52.97
2019-03-30T19:34:10.556Z,53.47
2019-03-30T19:36:46.942Z,53.83
2019-03-30T19:39:23.508Z,54.52
2019-03-30T19:41:58.351Z,54.82
2019-03-30T19:44:34.044Z,55.23
2019-03-30T19:47:09.940Z,55.35
2019-03-30T19:49:45.107Z,55.42
2019-03-30T19:52:20.974Z,55.42
2019-03-30T19:54:55.508Z,55.51
2019-03-30T19:57:30.308Z,55.49
2019-03-30T20:00:10.221Z,55.69
2019-03-30T20:02:44.979Z,56.02
2019-03-30T20:05:22.767Z,56.48
2019-03-30T20:08:11.223Z,56.69
2019-03-30T20:10:35.340Z,56.76
2019-03-30T20:13:10.162Z,57.29
2019-03-30T20:15:45.155Z,57.66
2019-03-30T20:18:21.139Z,58.08
2019-03-30T20:20:55.858Z,58.06
2019-03-30T20:23:30.366Z,58.24
2019-03-30T20:26:05.126Z,58.58
2019-03-30T20:28:45.778Z,58.86
2019-03-30T20:31:22.351Z,59.02
2019-03-30T20:33:57.026Z,59.05
2019-03-30T20:36:34.995Z,59.37
2019-03-30T20:39:10.262Z,59.42
2019-03-30T20:41:45.367Z,59.22
2019-03-30T20:44:20.434Z,59.27
2019-03-30T20:46:55.026Z,59.26
2019-03-30T20:49:29.967Z,59.15
2019-03-30T20:52:04.469Z,58.74
2019-03-30T20:54:39.606Z,58.36
2019-03-30T20:57:16.294Z,57.81
2019-03-30T20:59:52.684Z,58.29
2019-03-30T21:02:28.253Z,58.70
2019-03-30T21:05:04.875Z,59.05
2019-03-30T21:07:41.745Z,60.11
2019-03-30T21:10:16.465Z,60.49
2019-03-30T21:12:51.350Z,61.13
2019-03-30T21:15:26.417Z,61.31
2019-03-30T21:18:02.309Z,61.74
2019-03-30T21:20:37.152Z,61.97
2019-03-30T21:23:12.159Z,62.23
2019-03-30T21:25:47.008Z,62.73
2019-03-30T21:28:23.109Z,63.15
2019-03-30T21:30:59.331Z,63.55
2019-03-30T21:33:34.298Z,64.18
2019-03-30T21:36:09.199Z,64.54
2019-03-30T21:38:45.284Z,64.89
2019-03-30T21:41:21.365Z,65.11
2019-03-30T21:43:58.304Z,65.21
2019-03-30T21:46:34.026Z,66.10
2019-03-30T21:49:08.624Z,67.06
2019-03-30T21:51:43.405Z,67.26
2019-03-30T21:54:17.940Z,67.81
2019-03-30T21:56:54.396Z,67.83
2019-03-30T21:59:29.977Z,68.32
2019-03-30T22:02:04.471Z,68.96
2019-03-30T22:04:39.144Z,69.23
2019-03-30T22:07:13.878Z,69.59
2019-03-30T22:09:48.684Z,70.10
2019-03-30T22:12:38.940Z,70.51
2019-03-30T22:15:16.582Z,70.77
2019-03-30T22:17:50.998Z,71.17
2019-03-30T22:20:27.762Z,71.85
2019-03-30T22:23:04.252Z,72.06
2019-03-30T22:25:38.756Z,72.13
2019-03-30T22:28:13.247Z,72.61
2019-03-30T22:30:49.208Z,73.23
2019-03-30T22:33:24.196Z,73.15
2019-03-30T22:35:58.972Z,73.61
2019-03-30T22:38:33.608Z,73.84
2019-03-30T22:41:09.701Z,74.32
2019-03-30T22:43:44.430Z,74.75
2019-03-30T22:46:18.908Z,74.48
2019-03-30T22:48:53.537Z,74.78
2019-03-30T22:51:27.946Z,74.91
2019-03-30T22:54:03.918Z,75.28
2019-03-30T22:56:38.400Z,75.37
2019-03-30T22:59:12.794Z,75.56
2019-03-30T23:01:47.333Z,75.65
2019-03-30T23:04:22.311Z,75.85
2019-03-30T23:06:56.861Z,75.97
2019-03-30T23:09:31.252Z,76.05
2019-03-30T23:12:05.787Z,76.08
2019-03-30T23:14:40.939Z,76.51
2019-03-30T23:17:16.071Z,76.59
2019-03-30T23:19:50.699Z,76.67
2019-03-30T23:22:25.324Z,76.43
2019-03-30T23:25:01.083Z,76.53
2019-03-30T23:27:35.762Z,76.72
2019-03-30T23:30:11.874Z,77.05
2019-03-30T23:32:46.645Z,77.35
2019-03-30T23:35:21.125Z,77.46
2019-03-30T23:37:55.759Z,77.70
2019-03-30T23:40:30.163Z,78.10
2019-03-30T23:43:04.543Z,78.54
2019-03-30T23:45:39.327Z,78.62
2019-03-30T23:48:15.254Z,78.51
2019-03-30T23:50:49.733Z,78.54
2019-03-30T23:53:24.276Z,78.73
2019-03-30T23:55:59.185Z,79.01
2019-03-30T23:58:33.778Z,79.14
